createdAt,value
2019-01-21T00:00:28.137Z,0.00
2019-01-21T00:01:28.308Z,0.00
2019-01-21T00:02:28.468Z,0.00
2019-01-21T00:03:28.633Z,0.00
2019-01-21T00:04:28.801Z,0.00
2019-01-21T00:05:28.970Z,0.00
2019-01-21T00:06:29.139Z,0.00
2019-01-21T00:07:29.321Z,0.00
2019-01-21T00:08:29.473Z,0.00
2019-01-21T00:09:29.639Z,0.00
2019-01-21T00:10:29.806Z,0.00
2019-01-21T00:11:29.972Z,0.00
2019-01-21T00:12:30.137Z,0.00
2019-01-21T00:13:30.304Z,0.00
2019-01-21T00:14:30.483Z,0.00
2019-01-21T00:15:30.632Z,0.00
2019-01-21T00:16:30.822Z,0.00
2019-01-21T00:17:30.976Z,0.00
2019-01-21T00:18:31.133Z,0.00
2019-01-21T00:19:31.318Z,0.00
2019-01-21T00:20:31.474Z,0.00
2019-01-21T00:21:31.638Z,0.00
2019-01-21T00:22:31.808Z,0.00
2019-01-21T00:23:31.985Z,0.00
2019-01-21T00:24:32.153Z,0.00
2019-01-21T00:25:32.319Z,0.00
2019-01-21T00:26:32.485Z,0.00
2019-01-21T00:27:32.641Z,0.00
2019-01-21T00:28:32.822Z,0.00
2019-01-21T00:29:32.983Z,0.00
2019-01-21T00:30:33.149Z,0.00
2019-01-21T00:31:33.322Z,0.00
2019-01-21T00:32:33.489Z,0.00
2019-01-21T00:33:33.651Z,0.00
2019-01-21T00:34:33.817Z,0.00
2019-01-21T00:35:33.987Z,0.00
2019-01-21T00:36:34.161Z,0.00
2019-01-21T00:37:34.315Z,0.00
2019-01-21T00:38:34.497Z,0.00
2019-01-21T00:39:34.663Z,0.00
2019-01-21T00:40:34.829Z,0.00
2019-01-21T00:41:34.996Z,0.00
2019-01-21T00:42:35.165Z,0.00
2019-01-21T00:43:35.329Z,0.00
2019-01-21T00:44:35.504Z,0.00
2019-01-21T00:45:35.654Z,0.00
2019-01-21T00:46:35.831Z,0.00
2019-01-21T00:47:35.986Z,0.00
2019-01-21T00:48:36.158Z,0.00
2019-01-21T00:49:36.320Z,0.00
2019-01-21T00:50:36.503Z,0.00
2019-01-21T00:51:36.658Z,0.00
2019-01-21T00:52:36.819Z,0.00
2019-01-21T00:53:36.996Z,0.00
2019-01-21T00:54:37.146Z,0.00
2019-01-21T00:55:37.313Z,0.00
2019-01-21T00:56:37.477Z,0.00
2019-01-21T00:57:37.640Z,0.00
2019-01-21T00:58:37.802Z,0.00
2019-01-21T00:59:37.975Z,0.00
2019-01-21T01:00:38.133Z,0.00
2019-01-21T01:01:38.299Z,0.00
2019-01-21T01:02:38.471Z,0.00
2019-01-21T01:03:38.632Z,0.00
2019-01-21T01:04:38.801Z,0.00
2019-01-21T01:06:39.144Z,0.00
2019-01-21T01:07:39.323Z,0.00
2019-01-21T01:08:39.479Z,0.00
2019-01-21T01:09:39.653Z,0.00
2019-01-21T01:10:39.809Z,0.00
2019-01-21T01:11:39.978Z,0.00
2019-01-21T01:12:40.142Z,0.00
2019-01-21T01:13:40.317Z,0.00
2019-01-21T01:14:40.469Z,0.00
2019-01-21T01:15:40.637Z,0.00
2019-01-21T01:16:40.806Z,0.00
2019-01-21T01:17:40.970Z,0.00
2019-01-21T01:18:41.137Z,0.00
2019-01-21T01:19:41.303Z,0.00
2019-01-21T01:20:41.468Z,0.00
2019-01-21T01:21:41.645Z,0.00
2019-01-21T01:22:41.799Z,0.00
2019-01-21T01:23:41.965Z,0.00
2019-01-21T01:24:42.136Z,0.00
2019-01-21T01:25:42.301Z,0.00
2019-01-21T01:26:42.463Z,0.00
2019-01-21T01:27:42.630Z,0.00
2019-01-21T01:28:42.795Z,0.00
2019-01-21T01:29:42.963Z,0.00
2019-01-21T01:30:43.127Z,0.00
2019-01-21T01:31:43.294Z,0.00
2019-01-21T01:32:43.468Z,0.00
2019-01-21T01:33:43.624Z,0.00
2019-01-21T01:34:43.782Z,0.00
2019-01-21T01:35:43.950Z,0.00
2019-01-21T01:36:44.132Z,0.00
2019-01-21T01:37:44.283Z,0.00
2019-01-21T01:38:44.452Z,0.00
2019-01-21T01:39:44.615Z,0.00
2019-01-21T01:40:44.803Z,0.00
2019-01-21T01:41:44.972Z,0.00
2019-01-21T01:42:45.128Z,0.00
2019-01-21T01:43:45.305Z,0.00
2019-01-21T01:44:45.466Z,0.00
2019-01-21T01:45:45.633Z,0.00
2019-01-21T01:46:45.799Z,0.00
2019-01-21T01:47:45.969Z,0.00
2019-01-21T01:48:46.641Z,0.00
2019-01-21T01:49:46.304Z,0.00
2019-01-21T01:50:46.468Z,0.00
2019-01-21T01:51:46.639Z,0.00
2019-01-21T01:52:46.812Z,0.00
2019-01-21T01:53:46.971Z,0.00
2019-01-21T01:54:47.141Z,0.00
2019-01-21T01:55:47.301Z,0.00
2019-01-21T01:56:47.466Z,0.00
2019-01-21T01:57:47.636Z,0.00
2019-01-21T01:58:47.798Z,0.00
2019-01-21T01:59:47.964Z,0.00
2019-01-21T02:00:48.139Z,0.00
2019-01-21T02:01:48.300Z,0.00
2019-01-21T02:02:48.468Z,0.00
2019-01-21T02:03:48.630Z,0.00
2019-01-21T02:04:48.790Z,0.00
2019-01-21T02:05:48.960Z,0.00
2019-01-21T02:06:49.125Z,0.00
2019-01-21T02:07:49.298Z,0.00
2019-01-21T02:08:49.466Z,0.00
2019-01-21T02:09:49.621Z,0.00
2019-01-21T02:10:49.792Z,0.00
2019-01-21T02:11:49.960Z,0.00
2019-01-21T02:12:50.129Z,0.00
2019-01-21T02:13:50.288Z,0.00
2019-01-21T02:14:50.457Z,0.00
2019-01-21T02:15:50.620Z,0.00
2019-01-21T02:16:50.787Z,0.00
2019-01-21T02:17:52.115Z,0.00
2019-01-21T02:18:51.113Z,0.00
2019-01-21T02:19:51.286Z,0.00
2019-01-21T02:20:51.458Z,0.00
2019-01-21T02:21:51.618Z,0.00
2019-01-21T02:22:51.787Z,0.00
2019-01-21T02:23:51.946Z,0.00
2019-01-21T02:24:52.119Z,0.00
2019-01-21T02:25:52.306Z,0.00
2019-01-21T02:26:52.447Z,0.00
2019-01-21T02:27:52.616Z,0.00
2019-01-21T02:28:52.784Z,0.00
2019-01-21T02:29:52.966Z,0.00
2019-01-21T02:30:53.192Z,0.00
2019-01-21T02:31:53.268Z,0.00
2019-01-21T02:32:53.445Z,0.00
2019-01-21T02:33:53.597Z,0.00
2019-01-21T02:34:53.762Z,0.00
2019-01-21T02:35:53.929Z,0.00
2019-01-21T02:36:54.113Z,0.00
2019-01-21T02:37:54.272Z,0.00
2019-01-21T02:38:54.426Z,0.00
2019-01-21T02:39:54.594Z,0.00
2019-01-21T02:40:54.806Z,0.00
2019-01-21T02:41:54.928Z,0.00
2019-01-21T02:42:55.093Z,0.00
2019-01-21T02:43:55.256Z,0.00
2019-01-21T02:44:55.422Z,0.00
2019-01-21T02:45:55.590Z,0.00
2019-01-21T02:46:55.757Z,0.00
2019-01-21T02:48:00.322Z,0.00
2019-01-21T02:48:56.088Z,0.00
2019-01-21T02:49:56.252Z,0.00
2019-01-21T02:50:56.423Z,0.00
2019-01-21T02:51:56.586Z,0.00
2019-01-21T02:52:56.754Z,0.00
2019-01-21T02:53:56.918Z,0.00
2019-01-21T02:54:57.083Z,0.00
2019-01-21T02:55:57.250Z,0.00
2019-01-21T02:56:57.417Z,0.00
2019-01-21T02:57:57.579Z,0.00
2019-01-21T02:58:57.746Z,0.00
2019-01-21T02:59:57.911Z,0.00
2019-01-21T03:00:58.074Z,0.00
2019-01-21T03:01:58.241Z,0.00
2019-01-21T03:02:58.405Z,0.00
2019-01-21T03:03:58.564Z,0.00
2019-01-21T03:04:58.734Z,0.00
2019-01-21T03:05:58.898Z,0.00
2019-01-21T03:06:59.065Z,0.00
2019-01-21T03:07:59.234Z,0.00
2019-01-21T03:08:59.397Z,0.00
2019-01-21T03:09:59.560Z,0.00
2019-01-21T03:10:59.729Z,0.00
2019-01-21T03:11:59.898Z,0.00
2019-01-21T03:13:00.059Z,0.00
2019-01-21T03:14:00.221Z,0.00
2019-01-21T03:15:00.513Z,0.00
2019-01-21T03:16:00.558Z,0.00
2019-01-21T03:17:00.731Z,0.00
2019-01-21T03:18:07.767Z,0.00
2019-01-21T03:19:01.052Z,0.00
2019-01-21T03:20:01.220Z,0.00
2019-01-21T03:21:01.385Z,0.00
2019-01-21T03:22:01.555Z,0.00
2019-01-21T03:23:01.719Z,0.00
2019-01-21T03:24:01.886Z,0.00
2019-01-21T03:25:02.055Z,0.00
2019-01-21T03:26:02.221Z,0.00
2019-01-21T03:27:02.384Z,0.00
2019-01-21T03:28:02.558Z,0.00
2019-01-21T03:29:02.713Z,0.00
2019-01-21T03:30:02.888Z,0.00
2019-01-21T03:31:03.061Z,0.00
2019-01-21T03:32:03.232Z,0.00
2019-01-21T03:33:03.388Z,0.00
2019-01-21T03:34:03.560Z,0.00
2019-01-21T03:35:03.717Z,0.00
2019-01-21T03:36:03.893Z,0.00
2019-01-21T03:37:04.049Z,0.00
2019-01-21T03:38:04.209Z,0.00
2019-01-21T03:39:04.390Z,0.00
2019-01-21T03:40:04.542Z,0.00
2019-01-21T03:41:04.707Z,0.00
2019-01-21T03:42:04.873Z,0.00
2019-01-21T03:43:05.039Z,0.00
2019-01-21T03:44:05.206Z,0.00
2019-01-21T03:45:05.372Z,0.00
2019-01-21T03:46:05.535Z,0.00
2019-01-21T03:47:05.699Z,0.00
2019-01-21T03:48:05.870Z,0.00
2019-01-21T03:49:06.025Z,0.00
2019-01-21T03:50:06.197Z,0.00
2019-01-21T03:51:06.354Z,0.00
2019-01-21T03:52:06.521Z,0.00
2019-01-21T03:53:06.693Z,0.00
2019-01-21T03:54:06.855Z,0.00
2019-01-21T03:55:07.022Z,0.00
2019-01-21T03:56:07.189Z,0.00
2019-01-21T03:57:07.352Z,0.00
2019-01-21T03:58:07.517Z,0.00
2019-01-21T03:59:07.700Z,0.00
2019-01-21T04:00:07.856Z,0.00
2019-01-21T04:01:08.036Z,0.00
2019-01-21T04:02:08.189Z,0.00
2019-01-21T04:03:08.338Z,0.00
2019-01-21T04:04:08.508Z,0.00
2019-01-21T04:05:08.676Z,0.00
2019-01-21T04:06:08.841Z,0.00
2019-01-21T04:07:09.010Z,0.00
2019-01-21T04:08:09.173Z,0.00
2019-01-21T04:09:09.345Z,0.00
2019-01-21T04:10:09.506Z,0.00
2019-01-21T04:11:09.676Z,0.00
2019-01-21T04:12:09.838Z,0.00
2019-01-21T04:13:10.013Z,0.00
2019-01-21T04:14:10.179Z,0.00
2019-01-21T04:15:10.336Z,0.00
2019-01-21T04:16:10.504Z,0.00
2019-01-21T04:17:10.678Z,0.00
2019-01-21T04:18:10.841Z,0.00
2019-01-21T04:19:11.005Z,0.00
2019-01-21T04:20:11.185Z,0.00
2019-01-21T04:21:11.340Z,0.00
2019-01-21T04:22:11.505Z,0.00
2019-01-21T04:23:11.673Z,0.00
2019-01-21T04:24:11.838Z,0.00
2019-01-21T04:25:12.005Z,0.00
2019-01-21T04:26:12.173Z,0.00
2019-01-21T04:27:12.340Z,0.00
2019-01-21T04:28:12.524Z,0.00
2019-01-21T04:29:12.665Z,0.00
2019-01-21T04:30:12.829Z,0.00
2019-01-21T04:31:13.004Z,0.00
2019-01-21T04:32:13.173Z,0.00
2019-01-21T04:33:13.336Z,0.00
2019-01-21T04:34:13.503Z,0.00
2019-01-21T04:35:13.671Z,0.00
2019-01-21T04:36:13.833Z,0.00
2019-01-21T04:37:14.003Z,0.00
2019-01-21T04:38:14.175Z,0.00
2019-01-21T04:39:14.331Z,0.00
2019-01-21T04:40:14.497Z,0.00
2019-01-21T04:41:14.665Z,0.00
2019-01-21T04:42:14.836Z,0.00
2019-01-21T04:43:15.000Z,0.00
2019-01-21T04:44:15.168Z,0.00
2019-01-21T04:45:15.330Z,0.00
2019-01-21T04:46:15.534Z,0.00
2019-01-21T04:47:15.659Z,0.00
2019-01-21T04:48:15.824Z,0.00
2019-01-21T04:49:15.995Z,0.00
2019-01-21T04:50:16.164Z,0.00
2019-01-21T04:51:16.353Z,0.00
2019-01-21T04:52:16.522Z,0.00
2019-01-21T04:53:16.676Z,0.00
2019-01-21T04:54:16.849Z,0.00
2019-01-21T04:55:17.018Z,0.00
2019-01-21T04:56:17.182Z,0.00
2019-01-21T04:57:17.348Z,0.00
2019-01-21T04:58:17.516Z,0.00
2019-01-21T04:59:17.674Z,0.00
2019-01-21T05:00:17.849Z,0.00
2019-01-21T05:01:18.011Z,0.00
2019-01-21T05:02:18.179Z,0.00
2019-01-21T05:03:18.331Z,0.00
2019-01-21T05:04:18.500Z,0.00
2019-01-21T05:05:18.668Z,0.00
2019-01-21T05:06:18.829Z,0.00
2019-01-21T05:07:18.999Z,0.00
2019-01-21T05:08:19.165Z,0.00
2019-01-21T05:09:19.336Z,0.00
2019-01-21T05:10:19.495Z,0.00
2019-01-21T05:11:19.673Z,0.00
2019-01-21T05:12:19.839Z,0.00
2019-01-21T05:13:20.004Z,0.00
2019-01-21T05:14:20.173Z,0.00
2019-01-21T05:15:20.338Z,0.00
2019-01-21T05:16:20.509Z,0.00
2019-01-21T05:17:20.666Z,0.00
2019-01-21T05:18:20.831Z,0.00
2019-01-21T05:19:21.004Z,0.00
2019-01-21T05:20:21.170Z,0.00
2019-01-21T05:21:21.344Z,0.00
2019-01-21T05:22:21.511Z,0.00
2019-01-21T05:23:21.677Z,0.00
2019-01-21T05:24:21.842Z,0.00
2019-01-21T05:25:22.026Z,0.00
2019-01-21T05:26:22.204Z,0.00
2019-01-21T05:27:22.340Z,0.00
2019-01-21T05:28:22.500Z,0.00
2019-01-21T05:29:22.666Z,0.00
2019-01-21T05:30:22.839Z,0.00
2019-01-21T05:31:23.002Z,0.00
2019-01-21T05:32:23.167Z,0.00
2019-01-21T05:33:23.335Z,0.00
2019-01-21T05:34:23.525Z,0.00
2019-01-21T05:35:23.671Z,0.00
2019-01-21T05:36:23.836Z,0.00
2019-01-21T05:37:24.009Z,0.00
2019-01-21T05:38:24.192Z,0.00
2019-01-21T05:39:24.343Z,0.00
2019-01-21T05:40:24.519Z,0.00
2019-01-21T05:41:24.692Z,0.00
2019-01-21T05:42:24.842Z,0.00
2019-01-21T05:43:25.012Z,0.00
2019-01-21T05:44:25.184Z,0.00
2019-01-21T05:45:25.345Z,0.00
2019-01-21T05:46:25.502Z,0.00
2019-01-21T05:47:25.655Z,0.00
2019-01-21T05:48:25.826Z,0.00
2019-01-21T05:49:25.992Z,0.00
2019-01-21T05:50:26.157Z,0.00
2019-01-21T05:51:26.324Z,0.00
2019-01-21T05:52:26.494Z,0.00
2019-01-21T05:53:26.668Z,0.00
2019-01-21T05:54:26.826Z,0.00
2019-01-21T05:55:26.984Z,0.00
2019-01-21T05:56:27.161Z,0.00
2019-01-21T05:57:27.324Z,0.00
2019-01-21T05:58:27.489Z,0.00
2019-01-21T05:59:27.661Z,0.00
2019-01-21T06:00:27.828Z,0.00
2019-01-21T06:01:28.005Z,0.00
2019-01-21T06:02:28.158Z,0.00
2019-01-21T06:03:28.332Z,0.00
2019-01-21T06:04:28.494Z,0.00
2019-01-21T06:05:28.664Z,0.00
2019-01-21T06:06:28.831Z,0.00
2019-01-21T06:07:28.997Z,0.00
2019-01-21T06:08:29.162Z,0.00
2019-01-21T06:09:29.334Z,0.00
2019-01-21T06:10:29.508Z,0.00
2019-01-21T06:11:29.672Z,0.00
2019-01-21T06:12:29.841Z,0.00
2019-01-21T06:13:30.018Z,0.00
2019-01-21T06:14:30.173Z,0.00
2019-01-21T06:15:30.348Z,0.00
2019-01-21T06:16:30.509Z,0.00
2019-01-21T06:17:30.661Z,0.00
2019-01-21T06:18:30.832Z,0.00
2019-01-21T06:19:30.990Z,0.00
2019-01-21T06:20:31.192Z,0.00
2019-01-21T06:21:31.342Z,0.00
2019-01-21T06:22:31.512Z,0.00
2019-01-21T06:23:31.677Z,0.00
2019-01-21T06:24:31.841Z,0.00
2019-01-21T06:25:32.009Z,0.00
2019-01-21T06:26:32.176Z,0.00
2019-01-21T06:27:32.336Z,0.00
2019-01-21T06:28:32.496Z,0.00
2019-01-21T06:29:32.671Z,0.00
2019-01-21T06:30:32.834Z,0.00
2019-01-21T06:31:33.004Z,0.00
2019-01-21T06:32:33.173Z,0.00
2019-01-21T06:33:33.355Z,0.00
2019-01-21T06:34:33.507Z,0.00
2019-01-21T06:35:33.668Z,0.00
2019-01-21T06:36:33.836Z,0.00
2019-01-21T06:37:34.002Z,0.00
2019-01-21T06:38:34.169Z,0.00
2019-01-21T06:39:34.335Z,0.00
2019-01-21T06:40:34.518Z,0.00
2019-01-21T06:41:34.666Z,0.00
2019-01-21T06:42:34.843Z,0.00
2019-01-21T06:43:34.997Z,0.00
2019-01-21T06:44:35.169Z,0.00
2019-01-21T06:45:35.343Z,0.00
2019-01-21T06:46:35.511Z,0.00
2019-01-21T06:47:35.684Z,0.00
2019-01-21T06:48:35.840Z,0.00
2019-01-21T06:49:36.012Z,0.00
2019-01-21T06:50:36.177Z,0.00
2019-01-21T06:51:36.354Z,0.00
2019-01-21T06:52:36.508Z,0.00
2019-01-21T06:53:36.669Z,0.00
2019-01-21T06:54:36.836Z,0.00
2019-01-21T06:55:36.991Z,0.00
2019-01-21T06:56:37.167Z,0.00
2019-01-21T06:57:37.340Z,0.00
2019-01-21T06:58:37.511Z,0.00
2019-01-21T06:59:37.688Z,0.00
2019-01-21T07:00:37.858Z,0.00
2019-01-21T07:01:38.026Z,0.00
2019-01-21T07:02:38.203Z,0.00
2019-01-21T07:03:38.356Z,0.00
2019-01-21T07:04:38.524Z,0.00
2019-01-21T07:05:38.718Z,0.00
2019-01-21T07:06:38.853Z,0.00
2019-01-21T07:07:39.023Z,0.00
2019-01-21T07:08:39.200Z,0.00
2019-01-21T07:09:39.357Z,0.00
2019-01-21T07:10:39.529Z,0.00
2019-01-21T07:11:39.689Z,0.00
2019-01-21T07:12:39.886Z,0.00
2019-01-21T07:13:40.096Z,0.00
2019-01-21T07:14:40.230Z,0.00
2019-01-21T07:15:40.399Z,0.00
2019-01-21T07:16:40.566Z,0.00
2019-01-21T07:17:40.734Z,5.63
2019-01-21T07:18:40.932Z,5.63
2019-01-21T07:19:41.070Z,5.63
2019-01-21T07:20:41.286Z,5.63
2019-01-21T07:21:41.415Z,5.63
2019-01-21T07:22:41.577Z,5.63
2019-01-21T07:23:41.739Z,5.63
2019-01-21T07:24:41.898Z,5.63
2019-01-21T07:25:42.070Z,5.63
2019-01-21T07:26:42.234Z,5.63
2019-01-21T07:27:42.401Z,5.63
2019-01-21T07:28:42.575Z,5.63
2019-01-21T07:29:42.744Z,11.25
2019-01-21T07:30:42.909Z,11.25
2019-01-21T07:32:43.247Z,11.25
2019-01-21T07:33:43.405Z,11.25
2019-01-21T07:34:43.564Z,11.25
2019-01-21T07:35:43.745Z,16.88
2019-01-21T07:36:43.899Z,16.88
2019-01-21T07:37:44.084Z,16.88
2019-01-21T07:38:44.239Z,16.88
2019-01-21T07:39:44.420Z,16.88
2019-01-21T07:40:44.623Z,16.88
2019-01-21T07:41:44.757Z,16.88
2019-01-21T07:42:44.929Z,16.88
2019-01-21T07:43:45.092Z,16.88
2019-01-21T07:44:45.260Z,22.50
2019-01-21T07:45:45.426Z,22.50
2019-01-21T07:46:45.589Z,22.50
2019-01-21T07:47:45.758Z,22.50
2019-01-21T07:48:45.923Z,22.50
2019-01-21T07:49:46.089Z,28.13
2019-01-21T07:50:46.265Z,28.13
2019-01-21T07:51:46.431Z,28.13
2019-01-21T07:52:46.601Z,28.13
2019-01-21T07:53:46.780Z,28.13
2019-01-21T07:54:46.938Z,28.13
2019-01-21T07:55:47.102Z,28.13
2019-01-21T07:56:47.260Z,33.75
2019-01-21T07:57:47.425Z,33.75
2019-01-21T07:58:47.600Z,33.75
2019-01-21T07:59:47.761Z,33.75
2019-01-21T08:00:47.928Z,33.75
2019-01-21T08:01:48.105Z,33.75
2019-01-21T08:02:48.264Z,33.75
2019-01-21T08:03:48.429Z,33.75
2019-01-21T08:04:48.612Z,33.75
2019-01-21T08:05:48.758Z,39.38
2019-01-21T08:06:48.923Z,39.38
2019-01-21T08:07:49.086Z,39.38
2019-01-21T08:08:49.256Z,39.38
2019-01-21T08:09:49.427Z,39.38
2019-01-21T08:10:49.597Z,39.38
2019-01-21T08:11:49.761Z,45.00
2019-01-21T08:12:49.932Z,45.00
2019-01-21T08:13:50.100Z,45.00
2019-01-21T08:14:50.266Z,45.00
2019-01-21T08:15:50.430Z,45.00
2019-01-21T08:16:50.599Z,45.00
2019-01-21T08:17:50.778Z,45.00
2019-01-21T08:18:50.929Z,50.63
2019-01-21T08:19:51.114Z,50.63
2019-01-21T08:20:51.263Z,56.25
2019-01-21T08:21:51.428Z,56.25
2019-01-21T08:22:51.601Z,56.25
2019-01-21T08:23:51.773Z,56.25
2019-01-21T08:24:51.930Z,61.88
2019-01-21T08:25:52.096Z,61.88
2019-01-21T08:26:52.340Z,61.88
2019-01-21T08:27:52.417Z,61.88
2019-01-21T08:28:53.491Z,61.88
2019-01-21T08:29:52.738Z,67.50
2019-01-21T08:30:52.906Z,67.50
2019-01-21T08:31:53.072Z,73.13
2019-01-21T08:32:53.243Z,73.13
2019-01-21T08:33:54.161Z,73.13
2019-01-21T08:34:53.584Z,73.13
2019-01-21T08:35:53.741Z,73.13
2019-01-21T08:36:53.908Z,73.13
2019-01-21T08:37:54.084Z,73.13
2019-01-21T08:38:54.251Z,73.13
2019-01-21T08:39:54.410Z,73.13
2019-01-21T08:40:54.582Z,78.75
2019-01-21T08:41:54.746Z,78.75
2019-01-21T08:42:54.911Z,84.38
2019-01-21T08:43:55.088Z,84.38
2019-01-21T08:44:55.255Z,90.00
2019-01-21T08:45:55.419Z,84.38
2019-01-21T08:46:55.586Z,84.38
2019-01-21T08:47:55.746Z,84.38
2019-01-21T08:48:55.915Z,84.38
2019-01-21T08:49:56.081Z,84.38
2019-01-21T08:50:56.250Z,90.00
2019-01-21T08:51:56.420Z,90.00
2019-01-21T08:52:57.878Z,95.63
2019-01-21T08:53:56.749Z,101.25
2019-01-21T08:54:56.914Z,106.88
2019-01-21T08:55:57.085Z,106.88
2019-01-21T08:56:57.253Z,112.50
2019-01-21T08:57:57.417Z,112.50
2019-01-21T08:58:57.580Z,112.50
2019-01-21T08:59:57.752Z,112.50
2019-01-21T09:00:57.913Z,112.50
2019-01-21T09:01:58.081Z,112.50
2019-01-21T09:02:58.248Z,118.13
2019-01-21T09:03:58.416Z,112.50
2019-01-21T09:04:58.588Z,112.50
2019-01-21T09:05:58.791Z,112.50
2019-01-21T09:07:00.798Z,123.75
2019-01-21T09:07:59.091Z,129.38
2019-01-21T09:08:59.258Z,140.63
2019-01-21T09:09:59.443Z,151.88
2019-01-21T09:10:59.573Z,163.13
2019-01-21T09:11:59.742Z,174.38
2019-01-21T09:12:59.912Z,174.38
2019-01-21T09:14:00.103Z,180.00
2019-01-21T09:15:00.277Z,185.63
2019-01-21T09:16:00.447Z,185.63
2019-01-21T09:17:00.620Z,185.63
2019-01-21T09:18:00.775Z,196.88
2019-01-21T09:19:00.945Z,202.50
2019-01-21T09:20:01.093Z,208.13
2019-01-21T09:21:01.261Z,253.13
2019-01-21T09:22:01.419Z,281.25
2019-01-21T09:23:01.583Z,292.50
2019-01-21T09:24:01.752Z,292.50
2019-01-21T09:25:01.921Z,298.13
2019-01-21T09:26:02.089Z,286.88
2019-01-21T09:27:02.259Z,275.63
2019-01-21T09:28:02.427Z,270.00
2019-01-21T09:29:02.602Z,270.00
2019-01-21T09:30:02.753Z,270.00
2019-01-21T09:31:02.929Z,270.00
2019-01-21T09:32:03.107Z,264.38
2019-01-21T09:33:03.267Z,270.00
2019-01-21T09:34:03.434Z,264.38
2019-01-21T09:35:03.606Z,270.00
2019-01-21T09:36:03.793Z,275.63
2019-01-21T09:37:03.958Z,270.00
2019-01-21T09:38:04.132Z,286.88
2019-01-21T09:39:04.293Z,286.88
2019-01-21T09:40:04.461Z,286.88
2019-01-21T09:41:04.627Z,286.88
2019-01-21T09:42:04.797Z,281.25
2019-01-21T09:43:04.966Z,292.50
2019-01-21T09:44:05.136Z,298.13
2019-01-21T09:45:05.305Z,281.25
2019-01-21T09:46:05.473Z,286.88
2019-01-21T09:47:05.645Z,286.88
2019-01-21T09:48:05.813Z,286.88
2019-01-21T09:49:05.981Z,298.13
2019-01-21T09:50:06.207Z,292.50
2019-01-21T09:51:06.276Z,298.13
2019-01-21T09:52:06.442Z,298.13
2019-01-21T09:53:06.602Z,326.25
2019-01-21T09:54:06.784Z,309.38
2019-01-21T09:55:06.966Z,298.13
2019-01-21T09:56:07.108Z,303.75
2019-01-21T09:57:07.273Z,298.13
2019-01-21T09:58:07.444Z,303.75
2019-01-21T09:59:07.598Z,303.75
2019-01-21T10:00:07.766Z,303.75
2019-01-21T10:01:07.928Z,309.38
2019-01-21T10:02:08.100Z,309.38
2019-01-21T10:03:08.258Z,309.38
2019-01-21T10:04:08.436Z,303.75
2019-01-21T10:05:08.593Z,309.38
2019-01-21T10:06:08.753Z,337.50
2019-01-21T10:07:08.936Z,360.00
2019-01-21T10:08:09.095Z,371.25
2019-01-21T10:09:09.294Z,382.50
2019-01-21T10:10:09.420Z,393.75
2019-01-21T10:11:09.590Z,393.75
2019-01-21T10:12:09.755Z,405.00
2019-01-21T10:13:09.917Z,410.63
2019-01-21T10:14:10.088Z,410.63
2019-01-21T10:15:10.260Z,410.63
2019-01-21T10:16:10.421Z,410.63
2019-01-21T10:17:10.587Z,410.63
2019-01-21T10:18:10.760Z,416.25
2019-01-21T10:19:10.926Z,416.25
2019-01-21T10:20:11.118Z,416.25
2019-01-21T10:21:11.272Z,416.25
2019-01-21T10:22:11.465Z,410.63
2019-01-21T10:23:11.870Z,410.63
2019-01-21T10:24:11.773Z,410.63
2019-01-21T10:25:11.944Z,410.63
2019-01-21T10:26:12.117Z,410.63
2019-01-21T10:27:12.285Z,410.63
2019-01-21T10:28:12.440Z,405.00
2019-01-21T10:29:12.613Z,410.63
2019-01-21T10:30:12.797Z,410.63
2019-01-21T10:31:12.965Z,410.63
2019-01-21T10:32:13.233Z,410.63
2019-01-21T10:33:13.314Z,416.25
2019-01-21T10:34:13.471Z,421.88
2019-01-21T10:35:13.645Z,410.63
2019-01-21T10:36:13.816Z,416.25
2019-01-21T10:37:13.999Z,416.25
2019-01-21T10:38:14.169Z,410.63
2019-01-21T10:39:15.395Z,410.63
2019-01-21T10:40:14.725Z,410.63
2019-01-21T10:41:14.729Z,405.00
2019-01-21T10:42:14.861Z,405.00
2019-01-21T10:43:16.249Z,405.00
2019-01-21T10:44:15.212Z,405.00
2019-01-21T10:45:15.382Z,405.00
2019-01-21T10:46:15.557Z,405.00
2019-01-21T10:47:15.737Z,405.00
2019-01-21T10:48:15.916Z,405.00
2019-01-21T10:49:16.094Z,405.00
2019-01-21T10:50:16.259Z,399.38
2019-01-21T10:51:16.437Z,399.38
2019-01-21T10:52:16.608Z,393.75
2019-01-21T10:53:16.782Z,399.38
2019-01-21T10:54:16.960Z,399.38
2019-01-21T10:55:17.154Z,399.38
2019-01-21T10:56:19.203Z,399.38
2019-01-21T10:57:17.704Z,399.38
2019-01-21T10:58:17.731Z,399.38
2019-01-21T10:59:18.301Z,393.75
2019-01-21T11:00:18.234Z,399.38
2019-01-21T11:01:18.484Z,405.00
2019-01-21T11:02:19.534Z,405.00
2019-01-21T11:03:18.480Z,399.38
2019-01-21T11:04:18.673Z,393.75
2019-01-21T11:05:18.954Z,388.13
2019-01-21T11:06:19.413Z,388.13
2019-01-21T11:07:20.588Z,388.13
2019-01-21T11:08:19.432Z,382.50
2019-01-21T11:09:19.810Z,388.13
2019-01-21T11:10:19.866Z,393.75
2019-01-21T11:11:20.005Z,393.75
2019-01-21T11:12:20.187Z,393.75
2019-01-21T11:13:20.368Z,393.75
2019-01-21T11:14:20.862Z,388.13
2019-01-21T11:15:20.843Z,393.75
2019-01-21T11:16:20.984Z,393.75
2019-01-21T11:17:21.067Z,388.13
2019-01-21T11:18:21.270Z,388.13
2019-01-21T11:19:22.131Z,393.75
2019-01-21T11:20:24.145Z,393.75
2019-01-21T11:21:21.832Z,393.75
2019-01-21T11:22:21.964Z,393.75
2019-01-21T11:23:22.193Z,388.13
2019-01-21T11:24:22.504Z,388.13
2019-01-21T11:25:22.556Z,393.75
2019-01-21T11:26:22.977Z,393.75
2019-01-21T11:27:23.524Z,388.13
2019-01-21T11:28:24.261Z,382.50
2019-01-21T11:29:26.252Z,382.50
2019-01-21T11:30:23.364Z,388.13
2019-01-21T11:31:23.834Z,393.75
2019-01-21T11:32:23.735Z,393.75
2019-01-21T11:33:23.906Z,388.13
2019-01-21T11:34:24.069Z,382.50
2019-01-21T11:35:24.758Z,382.50
2019-01-21T11:36:24.726Z,388.13
2019-01-21T11:37:24.611Z,382.50
2019-01-21T11:38:24.885Z,382.50
2019-01-21T11:39:24.987Z,388.13
2019-01-21T11:40:25.867Z,382.50
2019-01-21T11:41:25.472Z,382.50
2019-01-21T11:42:25.755Z,388.13
2019-01-21T11:43:26.186Z,382.50
2019-01-21T11:44:26.602Z,376.88
2019-01-21T11:45:26.593Z,376.88
2019-01-21T11:46:26.733Z,376.88
2019-01-21T11:47:27.407Z,382.50
2019-01-21T11:48:27.638Z,382.50
2019-01-21T11:49:26.919Z,376.88
2019-01-21T11:50:27.063Z,371.25
2019-01-21T11:51:27.230Z,365.63
2019-01-21T11:52:27.395Z,371.25
2019-01-21T11:53:27.577Z,371.25
2019-01-21T11:54:27.752Z,365.63
2019-01-21T11:55:27.939Z,365.63
2019-01-21T11:56:28.102Z,365.63
2019-01-21T11:57:28.276Z,365.63
2019-01-21T11:58:28.450Z,365.63
2019-01-21T11:59:28.623Z,365.63
2019-01-21T12:00:28.802Z,365.63
2019-01-21T12:01:28.966Z,365.63
2019-01-21T12:02:29.157Z,371.25
2019-01-21T12:03:29.345Z,365.63
2019-01-21T12:04:29.501Z,365.63
2019-01-21T12:05:29.681Z,365.63
2019-01-21T12:06:29.849Z,365.63
2019-01-21T12:07:30.027Z,360.00
2019-01-21T12:08:30.192Z,354.38
2019-01-21T12:09:30.379Z,354.38
2019-01-21T12:10:30.574Z,354.38
2019-01-21T12:11:30.741Z,360.00
2019-01-21T12:12:31.223Z,354.38
2019-01-21T12:13:31.097Z,354.38
2019-01-21T12:14:31.276Z,354.38
2019-01-21T12:15:31.487Z,354.38
2019-01-21T12:16:31.633Z,348.75
2019-01-21T12:17:31.927Z,348.75
2019-01-21T12:18:31.974Z,348.75
2019-01-21T12:19:32.148Z,348.75
2019-01-21T12:20:32.330Z,348.75
2019-01-21T12:21:32.537Z,348.75
2019-01-21T12:22:32.737Z,348.75
2019-01-21T12:23:32.918Z,348.75
2019-01-21T12:24:33.098Z,348.75
2019-01-21T12:25:33.255Z,348.75
2019-01-21T12:26:33.448Z,348.75
2019-01-21T12:27:33.626Z,343.13
2019-01-21T12:28:33.808Z,337.50
2019-01-21T12:29:33.977Z,343.13
2019-01-21T12:30:34.136Z,337.50
2019-01-21T12:31:34.310Z,337.50
2019-01-21T12:32:34.487Z,337.50
2019-01-21T12:33:34.666Z,337.50
2019-01-21T12:34:34.839Z,337.50
2019-01-21T12:35:35.018Z,331.88
2019-01-21T12:36:35.220Z,331.88
2019-01-21T12:37:35.406Z,331.88
2019-01-21T12:38:35.589Z,326.25
2019-01-21T12:39:36.016Z,326.25
2019-01-21T12:40:38.554Z,320.63
2019-01-21T12:41:36.329Z,326.25
2019-01-21T12:42:36.321Z,326.25
2019-01-21T12:43:36.720Z,326.25
2019-01-21T12:44:36.893Z,326.25
2019-01-21T12:45:37.016Z,320.63
2019-01-21T12:46:37.018Z,315.00
2019-01-21T12:47:37.203Z,315.00
2019-01-21T12:48:37.385Z,315.00
2019-01-21T12:49:37.554Z,309.38
2019-01-21T12:50:38.007Z,309.38
2019-01-21T12:51:38.325Z,309.38
2019-01-21T12:52:39.040Z,303.75
2019-01-21T12:55:11.615Z,275.63
2019-01-21T12:56:11.731Z,298.13
2019-01-21T12:57:14.541Z,298.13
2019-01-21T12:58:12.067Z,298.13
2019-01-21T12:59:15.926Z,298.13
2019-01-21T13:00:14.421Z,298.13
2019-01-21T13:01:13.933Z,292.50
2019-01-21T13:02:12.930Z,292.50
2019-01-21T13:03:14.323Z,286.88
2019-01-21T13:04:13.239Z,292.50
2019-01-21T13:05:13.462Z,292.50